createdAt,value
2023-03-16T00:00:13.626Z,2.02
2023-03-16T00:00:26.986Z,1.95
2023-03-16T00:00:40.049Z,1.90
2023-03-16T00:00:52.008Z,1.85
2023-03-16T00:01:07.964Z,1.79
2023-03-16T00:01:20.038Z,1.75
2023-03-16T00:01:31.983Z,1.76
2023-03-16T00:01:43.984Z,1.76
2023-03-16T00:01:56.037Z,1.73
2023-03-16T00:02:09.395Z,1.70
2023-03-16T00:02:21.483Z,1.65
2023-03-16T00:02:33.418Z,1.64
2023-03-16T00:02:45.517Z,1.67
2023-03-16T00:02:57.580Z,1.66
2023-03-16T00:03:19.108Z,1.65
2023-03-16T00:03:31.276Z,1.59
2023-03-16T00:03:43.458Z,1.53
2023-03-16T00:03:55.503Z,1.53
2023-03-16T00:04:07.579Z,1.52
2023-03-16T00:04:19.486Z,1.53
2023-03-16T00:04:32.137Z,1.51
2023-03-16T00:04:47.262Z,1.49
2023-03-16T00:04:59.209Z,1.51
2023-03-16T00:05:13.188Z,1.51
2023-03-16T00:05:25.968Z,1.51
2023-03-16T00:05:38.569Z,1.44
2023-03-16T00:05:52.822Z,1.30
2023-03-16T00:06:05.006Z,1.14
2023-03-16T00:06:16.929Z,1.09
2023-03-16T00:06:28.832Z,0.97
2023-03-16T00:06:40.804Z,0.99
2023-03-16T00:06:52.811Z,1.03
2023-03-16T00:07:10.876Z,1.06
2023-03-16T00:07:22.824Z,1.10
2023-03-16T00:07:35.567Z,1.13
2023-03-16T00:07:47.491Z,1.16
2023-03-16T00:07:59.496Z,1.16
2023-03-16T00:08:11.452Z,1.20
2023-03-16T00:08:24.085Z,1.25
2023-03-16T00:08:36.903Z,1.27
2023-03-16T00:08:49.567Z,1.29
2023-03-16T00:09:01.464Z,1.32
2023-03-16T00:09:13.468Z,1.32
2023-03-16T00:09:31.062Z,1.32
2023-03-16T00:09:43.286Z,1.36
2023-03-16T00:09:55.534Z,1.38
2023-03-16T00:10:08.128Z,1.40
2023-03-16T00:10:20.097Z,1.43
2023-03-16T00:10:32.056Z,1.47
2023-03-16T00:10:46.870Z,1.45
2023-03-16T00:10:58.859Z,1.47
2023-03-16T00:11:12.174Z,1.51
2023-03-16T00:11:27.637Z,1.53
2023-03-16T00:11:39.557Z,1.56
2023-03-16T00:11:51.515Z,1.59
2023-03-16T00:12:03.713Z,1.62
2023-03-16T00:12:18.238Z,1.64
2023-03-16T00:12:34.565Z,1.65
2023-03-16T00:12:46.615Z,1.63
2023-03-16T00:12:58.604Z,1.64
2023-03-16T00:13:12.349Z,1.55
2023-03-16T00:13:25.087Z,1.47
2023-03-16T00:13:37.036Z,1.47
2023-03-16T00:13:48.948Z,1.50
2023-03-16T00:14:04.075Z,1.43
2023-03-16T00:14:15.977Z,1.43
2023-03-16T00:14:27.964Z,1.44
2023-03-16T00:14:39.927Z,1.46
2023-03-16T00:14:52.386Z,1.50
2023-03-16T00:15:04.826Z,1.48
2023-03-16T00:15:16.806Z,1.49
2023-03-16T00:15:29.717Z,1.47
2023-03-16T00:15:49.526Z,1.46
2023-03-16T00:16:04.457Z,1.42
2023-03-16T00:16:17.040Z,1.42
2023-03-16T00:16:29.151Z,1.41
2023-03-16T00:16:41.254Z,1.38
2023-03-16T00:16:53.370Z,1.37
2023-03-16T00:17:06.502Z,1.37
2023-03-16T00:17:20.546Z,1.38
2023-03-16T00:17:34.662Z,1.37
2023-03-16T00:17:48.462Z,1.33
2023-03-16T00:18:00.385Z,1.37
2023-03-16T00:18:12.319Z,1.36
2023-03-16T00:18:27.252Z,1.34
2023-03-16T00:18:39.403Z,1.34
2023-03-16T00:18:51.435Z,1.23
2023-03-16T00:19:03.353Z,1.26
2023-03-16T00:19:15.465Z,1.27
2023-03-16T00:19:27.754Z,1.29
2023-03-16T00:19:39.821Z,1.30
2023-03-16T00:19:57.196Z,1.32
2023-03-16T00:20:10.904Z,1.25
2023-03-16T00:20:23.065Z,1.24
2023-03-16T00:20:34.992Z,1.28
2023-03-16T00:20:59.721Z,1.30
2023-03-16T00:21:13.880Z,1.27
2023-03-16T00:21:25.876Z,1.17
2023-03-16T00:21:37.774Z,1.10
2023-03-16T00:21:51.247Z,1.10
2023-03-16T00:22:03.234Z,1.14
2023-03-16T00:22:16.272Z,1.17
2023-03-16T00:22:29.843Z,1.23
2023-03-16T00:22:41.944Z,1.27
2023-03-16T00:22:53.994Z,1.32
2023-03-16T00:23:05.944Z,1.35
2023-03-16T00:23:18.074Z,1.39
2023-03-16T00:23:30.056Z,1.45
2023-03-16T00:23:42.486Z,1.48
2023-03-16T00:23:54.469Z,1.52
2023-03-16T00:24:06.630Z,1.51
2023-03-16T00:24:19.999Z,1.54
2023-03-16T00:24:31.993Z,1.57
2023-03-16T00:24:43.990Z,1.60
2023-03-16T00:24:56.850Z,1.64
2023-03-16T00:25:14.364Z,1.68
2023-03-16T00:25:26.463Z,1.72
2023-03-16T00:25:38.407Z,1.74
2023-03-16T00:25:53.727Z,1.74
2023-03-16T00:26:08.942Z,1.71
2023-03-16T00:26:20.865Z,1.64
2023-03-16T00:26:32.854Z,1.64
2023-03-16T00:26:46.584Z,1.66
2023-03-16T00:26:58.487Z,1.62
2023-03-16T00:27:14.634Z,1.65
2023-03-16T00:27:27.007Z,1.59
2023-03-16T00:27:39.016Z,1.60
2023-03-16T00:27:50.943Z,1.56
2023-03-16T00:28:03.702Z,1.59
2023-03-16T00:28:15.705Z,1.62
2023-03-16T00:28:30.091Z,1.58
2023-03-16T00:28:42.608Z,1.57
2023-03-16T00:28:54.687Z,1.59
2023-03-16T00:29:06.612Z,1.56
2023-03-16T00:29:18.565Z,1.56
2023-03-16T00:29:34.615Z,1.57
2023-03-16T00:29:48.387Z,1.49
2023-03-16T00:30:03.258Z,1.51
2023-03-16T00:30:15.609Z,1.54
2023-03-16T00:30:27.705Z,1.50
2023-03-16T00:30:39.799Z,1.49
2023-03-16T00:30:52.196Z,1.47
2023-03-16T00:31:11.894Z,1.50
2023-03-16T00:31:24.964Z,1.43
2023-03-16T00:31:37.062Z,1.44
2023-03-16T00:31:49.095Z,1.45
2023-03-16T00:32:01.117Z,1.44
2023-03-16T00:32:17.901Z,1.49
2023-03-16T00:32:32.838Z,1.47
2023-03-16T00:32:44.798Z,1.46
2023-03-16T00:32:57.007Z,1.46
2023-03-16T00:33:09.099Z,1.48
2023-03-16T00:33:21.030Z,1.47
2023-03-16T00:33:35.989Z,1.49
2023-03-16T00:33:47.977Z,1.47
2023-03-16T00:33:59.946Z,1.50
2023-03-16T00:34:12.734Z,1.51
2023-03-16T00:34:24.737Z,1.52
2023-03-16T00:34:36.718Z,1.55
2023-03-16T00:34:48.694Z,1.48
2023-03-16T00:35:05.051Z,1.48
2023-03-16T00:35:17.081Z,1.52
2023-03-16T00:35:29.027Z,1.55
2023-03-16T00:35:50.238Z,1.52
2023-03-16T00:36:03.708Z,1.55
2023-03-16T00:36:16.670Z,1.48
2023-03-16T00:36:28.596Z,1.35
2023-03-16T00:36:42.442Z,1.42
2023-03-16T00:36:55.338Z,1.48
2023-03-16T00:37:07.405Z,1.55
2023-03-16T00:37:20.786Z,1.60
2023-03-16T00:37:33.304Z,1.62
2023-03-16T00:37:45.289Z,1.64
2023-03-16T00:37:57.458Z,1.63
2023-03-16T00:38:09.342Z,1.50
2023-03-16T00:38:21.787Z,1.51
2023-03-16T00:38:36.396Z,1.47
2023-03-16T00:38:50.029Z,1.54
2023-03-16T00:39:02.261Z,1.48
2023-03-16T00:39:14.888Z,1.51
2023-03-16T00:39:26.826Z,1.54
2023-03-16T00:39:38.705Z,1.51
2023-03-16T00:39:51.559Z,1.48
2023-03-16T00:40:04.089Z,1.53
2023-03-16T00:40:16.968Z,1.56
2023-03-16T00:40:29.432Z,1.55
2023-03-16T00:40:41.708Z,1.58
2023-03-16T00:40:53.653Z,1.60
2023-03-16T00:41:07.555Z,1.62
2023-03-16T00:41:19.936Z,1.57
2023-03-16T00:41:31.903Z,1.56
2023-03-16T00:41:44.022Z,1.53
2023-03-16T00:41:58.359Z,1.56
2023-03-16T00:42:12.229Z,1.58
2023-03-16T00:42:29.785Z,1.52
2023-03-16T00:42:41.781Z,1.57
2023-03-16T00:42:55.001Z,1.60
2023-03-16T00:43:06.941Z,1.65
2023-03-16T00:43:19.133Z,1.69
2023-03-16T00:43:40.566Z,1.59
2023-03-16T00:43:53.668Z,1.55
2023-03-16T00:44:05.954Z,1.63
2023-03-16T00:44:17.841Z,1.66
2023-03-16T00:44:29.855Z,1.55
2023-03-16T00:44:41.804Z,1.60
2023-03-16T00:44:57.918Z,1.65
2023-03-16T00:45:10.512Z,1.69
2023-03-16T00:45:23.577Z,1.68
2023-03-16T00:45:36.341Z,1.68
2023-03-16T00:45:48.361Z,1.64
2023-03-16T00:46:06.509Z,1.64
2023-03-16T00:46:18.585Z,1.63
2023-03-16T00:46:30.868Z,1.66
2023-03-16T00:46:42.827Z,1.61
2023-03-16T00:46:54.730Z,1.62
2023-03-16T00:47:06.663Z,1.65
2023-03-16T00:47:18.566Z,1.66
2023-03-16T00:47:32.841Z,1.70
2023-03-16T00:47:44.828Z,1.69
2023-03-16T00:47:56.772Z,1.64
2023-03-16T00:48:08.674Z,1.64
2023-03-16T00:48:24.381Z,1.65
2023-03-16T00:48:38.194Z,1.61
2023-03-16T00:48:51.421Z,1.65
2023-03-16T00:49:04.077Z,1.58
2023-03-16T00:49:16.010Z,1.62
2023-03-16T00:49:28.608Z,1.63
2023-03-16T00:49:42.809Z,1.64
2023-03-16T00:49:55.284Z,1.62
2023-03-16T00:50:07.897Z,1.62
2023-03-16T00:50:22.144Z,1.64
2023-03-16T00:50:34.116Z,1.67
2023-03-16T00:50:46.057Z,1.68
2023-03-16T00:50:58.378Z,1.70
2023-03-16T00:51:13.491Z,1.72
2023-03-16T00:51:25.425Z,1.74
2023-03-16T00:51:37.432Z,1.76
2023-03-16T00:51:49.362Z,1.79
2023-03-16T00:52:06.514Z,1.77
2023-03-16T00:52:18.748Z,1.65
2023-03-16T00:52:30.702Z,1.71
2023-03-16T00:52:42.744Z,1.67
2023-03-16T00:52:54.706Z,1.66
2023-03-16T00:53:06.771Z,1.59
2023-03-16T00:53:18.736Z,1.63
2023-03-16T00:53:31.345Z,1.62
2023-03-16T00:53:44.548Z,1.62
2023-03-16T00:53:56.453Z,1.57
2023-03-16T00:54:08.388Z,1.63
2023-03-16T00:54:22.110Z,1.67
2023-03-16T00:54:34.045Z,1.68
2023-03-16T00:54:47.527Z,1.71
2023-03-16T00:54:59.517Z,1.72
2023-03-16T00:55:11.546Z,1.72
2023-03-16T00:55:23.460Z,1.74
2023-03-16T00:55:35.373Z,1.72
2023-03-16T00:55:47.284Z,1.72
2023-03-16T00:55:59.921Z,1.71
2023-03-16T00:56:13.657Z,1.70
2023-03-16T00:56:25.598Z,1.72
2023-03-16T00:56:37.522Z,1.69
2023-03-16T00:56:49.476Z,1.68
2023-03-16T00:57:02.226Z,1.67
2023-03-16T00:57:18.766Z,1.71
2023-03-16T00:57:31.888Z,1.71
2023-03-16T00:57:43.850Z,1.71
2023-03-16T00:57:55.964Z,1.74
2023-03-16T00:58:07.906Z,1.77
2023-03-16T00:58:20.035Z,1.74
2023-03-16T00:58:35.691Z,1.74
2023-03-16T00:58:47.704Z,1.76
2023-03-16T00:58:59.599Z,1.76
2023-03-16T00:59:13.005Z,1.78
2023-03-16T00:59:26.220Z,1.76
2023-03-16T00:59:38.430Z,1.77
2023-03-16T00:59:50.898Z,1.76
2023-03-16T01:00:12.847Z,1.73
2023-03-16T01:00:28.329Z,1.67
2023-03-16T01:00:40.977Z,1.64
2023-03-16T01:00:54.655Z,1.55
2023-03-16T01:01:09.058Z,1.59
2023-03-16T01:01:21.154Z,1.62
2023-03-16T01:01:33.224Z,1.64
2023-03-16T01:01:46.212Z,1.64
2023-03-16T01:01:58.153Z,1.66
2023-03-16T01:02:10.550Z,1.67
2023-03-16T01:02:25.823Z,1.51
2023-03-16T01:02:37.725Z,1.58
2023-03-16T01:02:49.638Z,1.64
2023-03-16T01:03:01.717Z,1.66
2023-03-16T01:03:13.707Z,1.67
2023-03-16T01:03:25.647Z,1.63
2023-03-16T01:03:37.661Z,1.65
2023-03-16T01:03:49.725Z,1.69
2023-03-16T01:04:01.719Z,1.70
2023-03-16T01:04:13.909Z,1.68
2023-03-16T01:04:25.835Z,1.68
2023-03-16T01:04:40.055Z,1.66
2023-03-16T01:04:54.477Z,1.72
2023-03-16T01:05:07.375Z,1.66
2023-03-16T01:05:19.443Z,1.68
2023-03-16T01:05:33.433Z,1.72
2023-03-16T01:05:45.584Z,1.76
2023-03-16T01:05:59.968Z,1.80
2023-03-16T01:06:15.431Z,1.82
2023-03-16T01:06:27.856Z,1.79
2023-03-16T01:06:41.654Z,1.79
2023-03-16T01:06:53.548Z,1.75
2023-03-16T01:07:07.739Z,1.59
2023-03-16T01:07:21.790Z,1.56
2023-03-16T01:07:36.044Z,1.65
2023-03-16T01:07:47.964Z,1.64
2023-03-16T01:08:02.366Z,1.68
2023-03-16T01:08:14.738Z,1.69
2023-03-16T01:08:29.920Z,1.69
2023-03-16T01:08:42.480Z,1.75
2023-03-16T01:08:54.472Z,1.73
2023-03-16T01:09:06.695Z,1.75
2023-03-16T01:09:18.737Z,1.62
2023-03-16T01:09:30.748Z,1.52
2023-03-16T01:09:43.012Z,1.62
2023-03-16T01:09:54.994Z,1.64
2023-03-16T01:10:08.313Z,1.69
2023-03-16T01:10:20.830Z,1.72
2023-03-16T01:10:35.179Z,1.67
2023-03-16T01:10:47.080Z,1.70
2023-03-16T01:11:04.054Z,1.72
2023-03-16T01:11:18.650Z,1.56
2023-03-16T01:11:33.700Z,1.56
2023-03-16T01:11:46.439Z,1.62
2023-03-16T01:11:58.364Z,1.65
2023-03-16T01:12:14.686Z,1.68
2023-03-16T01:12:27.769Z,1.73
2023-03-16T01:12:39.766Z,1.74
2023-03-16T01:12:56.114Z,1.77
2023-03-16T01:13:08.068Z,1.75
2023-03-16T01:13:21.270Z,1.60
2023-03-16T01:13:33.599Z,1.65
2023-03-16T01:13:49.637Z,1.66
2023-03-16T01:14:01.705Z,1.70
2023-03-16T01:14:13.640Z,1.73
2023-03-16T01:14:25.594Z,1.75
2023-03-16T01:14:37.854Z,1.73
2023-03-16T01:14:49.858Z,1.76
2023-03-16T01:15:02.175Z,1.76
2023-03-16T01:15:14.253Z,1.76
2023-03-16T01:15:26.185Z,1.79
2023-03-16T01:15:38.082Z,1.82
2023-03-16T01:15:51.299Z,1.84
2023-03-16T01:16:07.000Z,1.88
2023-03-16T01:16:19.254Z,1.80
2023-03-16T01:16:33.807Z,1.78
2023-03-16T01:16:46.066Z,1.82
2023-03-16T01:16:58.097Z,1.84
2023-03-16T01:17:10.279Z,1.85
2023-03-16T01:17:24.886Z,1.85
2023-03-16T01:17:36.841Z,1.84
2023-03-16T01:17:49.070Z,1.84
2023-03-16T01:18:01.747Z,1.82
2023-03-16T01:18:13.913Z,1.82
2023-03-16T01:18:27.493Z,1.82
2023-03-16T01:18:39.485Z,1.83
2023-03-16T01:18:56.088Z,1.77
2023-03-16T01:19:07.989Z,1.81
2023-03-16T01:19:19.949Z,1.83
2023-03-16T01:19:34.045Z,1.77
2023-03-16T01:19:46.253Z,1.79
2023-03-16T01:19:58.161Z,1.81
2023-03-16T01:20:16.261Z,1.82
2023-03-16T01:20:28.514Z,1.83
2023-03-16T01:20:40.616Z,1.83
2023-03-16T01:20:53.622Z,1.79
2023-03-16T01:21:08.917Z,1.79
2023-03-16T01:21:22.084Z,1.77
2023-03-16T01:21:33.984Z,1.74
2023-03-16T01:21:45.953Z,1.76
2023-03-16T01:21:58.428Z,1.71
2023-03-16T01:22:11.613Z,1.73
2023-03-16T01:22:23.530Z,1.74
2023-03-16T01:22:35.432Z,1.66
2023-03-16T01:22:47.633Z,1.70
2023-03-16T01:22:59.576Z,1.68
2023-03-16T01:23:11.558Z,1.72
2023-03-16T01:23:23.559Z,1.70
2023-03-16T01:23:37.332Z,1.68
2023-03-16T01:23:49.511Z,1.69
2023-03-16T01:24:01.487Z,1.73
2023-03-16T01:24:13.999Z,1.76
2023-03-16T01:24:25.996Z,1.78
2023-03-16T01:24:38.643Z,1.76
2023-03-16T01:24:50.589Z,1.64
2023-03-16T01:25:02.511Z,1.54
2023-03-16T01:25:14.710Z,1.59
2023-03-16T01:25:26.758Z,1.63
2023-03-16T01:25:38.683Z,1.63
2023-03-16T01:25:53.872Z,1.64
2023-03-16T01:26:07.806Z,1.64
2023-03-16T01:26:21.037Z,1.65
2023-03-16T01:26:33.828Z,1.58
2023-03-16T01:26:45.773Z,1.59
2023-03-16T01:26:58.054Z,1.63
2023-03-16T01:27:10.139Z,1.60
2023-03-16T01:27:22.667Z,1.65
2023-03-16T01:27:34.718Z,1.68
2023-03-16T01:27:46.723Z,1.69
2023-03-16T01:27:58.606Z,1.68
2023-03-16T01:28:10.576Z,1.65
2023-03-16T01:28:24.780Z,1.68
2023-03-16T01:28:37.297Z,1.68
2023-03-16T01:28:49.500Z,1.68
2023-03-16T01:29:02.327Z,1.64
2023-03-16T01:29:14.628Z,1.66
2023-03-16T01:29:26.634Z,1.66
2023-03-16T01:29:40.070Z,1.65
2023-03-16T01:29:51.963Z,1.60
2023-03-16T01:30:06.075Z,1.60
2023-03-16T01:30:18.015Z,1.55
2023-03-16T01:30:30.232Z,1.58
2023-03-16T01:30:43.697Z,1.62
2023-03-16T01:31:01.840Z,1.55
2023-03-16T01:31:15.122Z,1.47
2023-03-16T01:31:28.115Z,1.52
2023-03-16T01:31:40.095Z,1.48
2023-03-16T01:31:52.337Z,1.49
2023-03-16T01:32:05.491Z,1.47
2023-03-16T01:32:17.541Z,1.46
2023-03-16T01:32:29.592Z,1.51
2023-03-16T01:32:41.749Z,1.51
2023-03-16T01:32:53.874Z,1.55
2023-03-16T01:33:06.066Z,1.59
2023-03-16T01:33:18.283Z,1.60
2023-03-16T01:33:30.331Z,1.62
2023-03-16T01:33:43.578Z,1.50
2023-03-16T01:33:55.670Z,1.48
2023-03-16T01:34:07.584Z,1.41
2023-03-16T01:34:19.655Z,1.46
2023-03-16T01:34:32.461Z,1.46
2023-03-16T01:34:44.514Z,1.46
2023-03-16T01:34:56.585Z,1.38
2023-03-16T01:35:09.245Z,1.45
2023-03-16T01:35:21.909Z,1.41
2023-03-16T01:35:33.949Z,1.44
2023-03-16T01:36:06.451Z,1.50
2023-03-16T01:36:19.310Z,1.53
2023-03-16T01:36:32.039Z,1.56
2023-03-16T01:36:46.961Z,1.57
2023-03-16T01:36:59.585Z,1.55
2023-03-16T01:37:11.580Z,1.49
2023-03-16T01:37:23.635Z,1.50
2023-03-16T01:37:35.621Z,1.55
2023-03-16T01:37:47.697Z,1.57
2023-03-16T01:37:59.644Z,1.56
2023-03-16T01:38:11.610Z,1.59
2023-03-16T01:38:24.295Z,1.63
2023-03-16T01:38:36.564Z,1.65
2023-03-16T01:38:48.702Z,1.67
2023-03-16T01:39:01.076Z,1.68
2023-03-16T01:39:13.783Z,1.69
2023-03-16T01:39:25.976Z,1.72
2023-03-16T01:39:37.946Z,1.73
2023-03-16T01:39:49.921Z,1.72
2023-03-16T01:40:02.230Z,1.74
2023-03-16T01:40:14.433Z,1.76
2023-03-16T01:40:26.664Z,1.75
2023-03-16T01:40:38.835Z,1.71
2023-03-16T01:40:52.197Z,1.65
2023-03-16T01:41:04.622Z,1.67
2023-03-16T01:41:17.530Z,1.68
2023-03-16T01:41:29.512Z,1.71
2023-03-16T01:41:42.933Z,1.72
2023-03-16T01:41:55.084Z,1.73
2023-03-16T01:42:07.341Z,1.70
2023-03-16T01:42:19.402Z,1.69
2023-03-16T01:42:31.476Z,1.68
2023-03-16T01:42:58.881Z,1.66
2023-03-16T01:43:11.520Z,1.68
2023-03-16T01:43:28.777Z,1.70
2023-03-16T01:43:41.936Z,1.69
2023-03-16T01:43:58.214Z,1.72
2023-03-16T01:44:14.799Z,1.59
2023-03-16T01:44:35.003Z,1.55
2023-03-16T01:44:56.502Z,1.54
2023-03-16T01:46:07.279Z,1.63
2023-03-16T01:46:52.250Z,1.52
2023-03-16T01:47:17.047Z,1.55
2023-03-16T01:48:25.056Z,1.52
2023-03-16T01:49:59.921Z,1.35
2023-03-16T01:50:21.085Z,1.34
2023-03-16T01:50:38.353Z,1.41
2023-03-16T01:51:18.846Z,1.47
2023-03-16T01:51:47.733Z,1.46
2023-03-16T01:52:10.074Z,1.33
2023-03-16T01:52:29.461Z,1.30
2023-03-16T01:52:42.175Z,1.32
2023-03-16T01:52:54.386Z,1.32
2023-03-16T01:53:06.490Z,1.35
2023-03-16T01:53:20.097Z,1.32
2023-03-16T01:53:33.381Z,1.36
2023-03-16T01:53:48.669Z,1.40
2023-03-16T01:54:15.006Z,1.42
2023-03-16T01:54:50.046Z,1.44
2023-03-16T01:55:13.257Z,1.30
2023-03-16T01:55:25.455Z,1.33
2023-03-16T01:55:37.782Z,1.38
2023-03-16T01:55:50.842Z,1.38
2023-03-16T01:56:08.276Z,1.38
2023-03-16T01:56:29.169Z,1.24
2023-03-16T01:56:58.769Z,1.30
2023-03-16T01:57:20.519Z,1.33
2023-03-16T01:57:36.832Z,1.35
2023-03-16T01:57:48.950Z,1.37
2023-03-16T01:58:01.790Z,1.35
2023-03-16T01:58:14.939Z,1.34
2023-03-16T01:58:28.866Z,1.36
2023-03-16T01:58:43.533Z,1.32
2023-03-16T01:58:59.346Z,1.33
2023-03-16T01:59:16.883Z,1.37
2023-03-16T01:59:50.090Z,1.40
2023-03-16T02:00:23.671Z,1.44
2023-03-16T02:00:35.613Z,1.45
2023-03-16T02:00:47.787Z,1.47
2023-03-16T02:00:59.921Z,1.48
2023-03-16T02:01:13.134Z,1.46
2023-03-16T02:01:28.117Z,1.46
2023-03-16T02:01:40.460Z,1.47
2023-03-16T02:01:52.938Z,1.42
2023-03-16T02:02:06.814Z,1.44
2023-03-16T02:02:21.484Z,1.44
2023-03-16T02:02:34.122Z,1.43
2023-03-16T02:02:58.158Z,1.44
2023-03-16T02:03:19.626Z,1.38
2023-03-16T02:03:35.573Z,1.39
2023-03-16T02:03:47.630Z,1.42
2023-03-16T02:04:09.632Z,1.42
2023-03-16T02:04:31.965Z,1.43
2023-03-16T02:04:44.171Z,1.44
2023-03-16T02:05:14.294Z,1.38
2023-03-16T02:05:33.459Z,1.40
2023-03-16T02:06:01.002Z,1.31
2023-03-16T02:06:19.038Z,1.19
2023-03-16T02:06:32.230Z,1.27
2023-03-16T02:06:45.284Z,1.25
2023-03-16T02:06:58.804Z,1.29
2023-03-16T02:07:11.030Z,1.30
2023-03-16T02:07:25.282Z,1.32
2023-03-16T02:07:43.857Z,1.35
2023-03-16T02:07:58.924Z,1.37
2023-03-16T02:08:12.414Z,1.31
2023-03-16T02:08:25.249Z,1.35
2023-03-16T02:08:39.585Z,1.37
2023-03-16T02:08:55.345Z,1.38
2023-03-16T02:09:08.940Z,1.41
2023-03-16T02:09:22.637Z,1.43
2023-03-16T02:09:39.492Z,1.43
2023-03-16T02:09:56.115Z,1.46
2023-03-16T02:10:10.597Z,1.48
2023-03-16T02:10:22.513Z,1.49
2023-03-16T02:10:35.869Z,1.51
2023-03-16T02:10:49.120Z,1.51
2023-03-16T02:11:01.123Z,1.52
2023-03-16T02:11:17.990Z,1.52
2023-03-16T02:11:30.496Z,1.53
2023-03-16T02:11:43.746Z,1.53
2023-03-16T02:11:55.803Z,1.53
2023-03-16T02:12:08.991Z,1.53
2023-03-16T02:12:21.723Z,1.51
2023-03-16T02:12:33.946Z,1.51
2023-03-16T02:12:46.527Z,1.52
2023-03-16T02:12:58.702Z,1.52
2023-03-16T02:13:11.199Z,1.54
2023-03-16T02:13:24.523Z,1.52
2023-03-16T02:13:36.970Z,1.51
2023-03-16T02:13:49.579Z,1.53
2023-03-16T02:14:07.865Z,1.52
2023-03-16T02:14:19.817Z,1.52
2023-03-16T02:14:31.779Z,1.53
2023-03-16T02:14:50.696Z,1.54
2023-03-16T02:15:02.672Z,1.56
2023-03-16T02:15:16.234Z,1.58
2023-03-16T02:15:28.297Z,1.57
2023-03-16T02:15:40.376Z,1.57
2023-03-16T02:15:53.525Z,1.56
2023-03-16T02:16:10.107Z,1.57
2023-03-16T02:16:22.541Z,1.59
2023-03-16T02:16:34.706Z,1.59
2023-03-16T02:16:47.640Z,1.60
2023-03-16T02:16:59.697Z,1.60
2023-03-16T02:17:12.832Z,1.57
2023-03-16T02:17:30.966Z,1.59
2023-03-16T02:17:44.553Z,1.59
2023-03-16T02:18:00.038Z,1.59
2023-03-16T02:18:12.170Z,1.62
2023-03-16T02:18:24.163Z,1.63
2023-03-16T02:18:36.381Z,1.63
2023-03-16T02:18:50.246Z,1.64
2023-03-16T02:19:02.487Z,1.64
2023-03-16T02:19:30.274Z,1.64
2023-03-16T02:19:53.255Z,1.63
2023-03-16T02:20:26.933Z,1.63
2023-03-16T02:20:44.831Z,1.63
2023-03-16T02:21:11.699Z,1.63
2023-03-16T02:21:54.597Z,1.62
2023-03-16T02:22:08.699Z,1.65
2023-03-16T02:22:24.927Z,1.66
2023-03-16T02:22:42.166Z,1.68
2023-03-16T02:22:57.596Z,1.67
2023-03-16T02:23:18.375Z,1.63
2023-03-16T02:23:32.691Z,1.64
2023-03-16T02:23:45.957Z,1.64
2023-03-16T02:23:58.821Z,1.66
2023-03-16T02:24:11.182Z,1.66
2023-03-16T02:24:23.216Z,1.66
2023-03-16T02:24:38.110Z,1.65
2023-03-16T02:24:50.073Z,1.67
2023-03-16T02:25:02.366Z,1.68
2023-03-16T02:25:17.489Z,1.69
2023-03-16T02:25:48.884Z,1.69
2023-03-16T02:26:10.779Z,1.69
2023-03-16T02:26:37.172Z,1.69
2023-03-16T02:26:53.760Z,1.68
2023-03-16T02:27:10.389Z,1.68
2023-03-16T02:28:00.674Z,1.68
2023-03-16T02:28:31.391Z,1.69
2023-03-16T02:29:18.969Z,1.70
2023-03-16T02:30:07.811Z,1.71
2023-03-16T02:30:21.758Z,1.71
2023-03-16T02:30:34.379Z,1.71
2023-03-16T02:30:47.482Z,1.70
2023-03-16T02:31:02.032Z,1.68
2023-03-16T02:31:16.863Z,1.67
2023-03-16T02:31:29.454Z,1.67
2023-03-16T02:31:41.603Z,1.65
2023-03-16T02:31:54.429Z,1.65
2023-03-16T02:32:06.516Z,1.66
2023-03-16T02:32:20.063Z,1.67
2023-03-16T02:32:33.435Z,1.68
2023-03-16T02:32:49.028Z,1.68
2023-03-16T02:33:01.605Z,1.69
2023-03-16T02:33:16.174Z,1.68
2023-03-16T02:33:30.858Z,1.68
2023-03-16T02:33:44.558Z,1.67
2023-03-16T02:33:57.232Z,1.69
2023-03-16T02:34:12.043Z,1.70
2023-03-16T02:34:25.199Z,1.69
2023-03-16T02:34:37.438Z,1.70
2023-03-16T02:34:49.468Z,1.71
2023-03-16T02:35:03.499Z,1.71
2023-03-16T02:35:15.485Z,1.71
2023-03-16T02:35:27.420Z,1.71
2023-03-16T02:35:39.442Z,1.70
2023-03-16T02:35:51.468Z,1.70
2023-03-16T02:36:03.620Z,1.67
2023-03-16T02:36:15.691Z,1.69
2023-03-16T02:36:29.719Z,1.69
2023-03-16T02:36:43.689Z,1.71
2023-03-16T02:36:57.310Z,1.69
2023-03-16T02:37:09.926Z,1.68
2023-03-16T02:37:21.918Z,1.67
2023-03-16T02:37:35.877Z,1.70
2023-03-16T02:37:47.961Z,1.69
2023-03-16T02:38:00.175Z,1.66
2023-03-16T02:38:12.508Z,1.68
2023-03-16T02:38:24.423Z,1.66
2023-03-16T02:38:36.347Z,1.65
2023-03-16T02:38:48.345Z,1.63
2023-03-16T02:39:00.282Z,1.65
2023-03-16T02:39:12.268Z,1.67
2023-03-16T02:39:24.335Z,1.66
2023-03-16T02:39:36.268Z,1.66
2023-03-16T02:39:48.194Z,1.64
2023-03-16T02:40:02.288Z,1.66
2023-03-16T02:40:29.967Z,1.64
2023-03-16T02:40:43.881Z,1.65
2023-03-16T02:41:00.645Z,1.66
2023-03-16T02:41:18.238Z,1.66
2023-03-16T02:41:32.768Z,1.68
2023-03-16T02:41:46.125Z,1.63
2023-03-16T02:41:58.184Z,1.58
2023-03-16T02:42:16.855Z,1.60
2023-03-16T02:42:29.850Z,1.50
2023-03-16T02:42:42.568Z,1.46
2023-03-16T02:43:17.918Z,1.37
2023-03-16T02:43:35.410Z,1.27
2023-03-16T02:43:53.616Z,1.31
2023-03-16T02:44:19.809Z,1.32
2023-03-16T02:44:36.959Z,1.35
2023-03-16T02:44:55.236Z,1.35
2023-03-16T02:45:07.769Z,1.34
2023-03-16T02:45:20.342Z,1.37
2023-03-16T02:45:43.795Z,1.39
2023-03-16T02:45:58.702Z,1.26
2023-03-16T02:46:11.220Z,1.24
2023-03-16T02:46:27.884Z,1.19
2023-03-16T02:46:43.323Z,1.14
2023-03-16T02:47:01.256Z,1.16
2023-03-16T02:47:22.225Z,1.11
2023-03-16T02:47:38.881Z,1.17
2023-03-16T02:47:53.637Z,1.13
2023-03-16T02:48:14.681Z,1.05
2023-03-16T02:48:47.863Z,1.13
2023-03-16T02:49:07.408Z,1.17
2023-03-16T02:49:27.387Z,1.22
2023-03-16T02:49:43.593Z,1.25
2023-03-16T02:49:55.543Z,1.28
2023-03-16T02:50:08.910Z,1.25
2023-03-16T02:50:21.003Z,1.29
2023-03-16T02:50:32.966Z,1.31
2023-03-16T02:50:51.567Z,1.35
2023-03-16T02:51:04.334Z,1.37
2023-03-16T02:51:16.288Z,1.32
2023-03-16T02:51:29.200Z,1.30
2023-03-16T02:51:41.326Z,1.28
2023-03-16T02:51:53.361Z,1.18
2023-03-16T02:52:06.670Z,1.12
2023-03-16T02:52:18.752Z,1.13
2023-03-16T02:52:30.721Z,1.15
2023-03-16T02:52:42.705Z,1.15
2023-03-16T02:52:55.790Z,1.16
2023-03-16T02:53:08.484Z,1.19
2023-03-16T02:53:21.027Z,1.22
2023-03-16T02:53:32.915Z,1.17
2023-03-16T02:53:44.806Z,1.16
2023-03-16T02:53:56.728Z,1.10
2023-03-16T02:54:08.643Z,1.08
2023-03-16T02:54:20.635Z,1.07
2023-03-16T02:54:32.627Z,1.06
2023-03-16T02:54:44.591Z,1.09
2023-03-16T02:54:56.482Z,1.04
2023-03-16T02:55:08.777Z,0.92
2023-03-16T02:55:21.622Z,0.95
2023-03-16T02:55:33.591Z,0.94
2023-03-16T02:55:46.401Z,0.91
2023-03-16T02:55:58.293Z,0.91
2023-03-16T02:56:10.917Z,0.86
2023-03-16T02:56:22.914Z,0.89
2023-03-16T02:56:34.940Z,0.94
2023-03-16T02:56:47.055Z,0.94
2023-03-16T02:56:59.000Z,0.87
2023-03-16T02:57:11.059Z,0.87
2023-03-16T02:57:23.080Z,0.91
2023-03-16T02:57:35.036Z,0.86
2023-03-16T02:57:47.491Z,0.76
2023-03-16T02:57:59.427Z,0.82
2023-03-16T02:58:11.715Z,0.79
2023-03-16T02:58:23.645Z,0.72
2023-03-16T02:58:35.666Z,0.79
2023-03-16T02:58:47.608Z,0.76
2023-03-16T02:58:59.561Z,0.78
2023-03-16T02:59:12.207Z,0.83
2023-03-16T02:59:24.116Z,0.87
2023-03-16T02:59:36.073Z,0.89
2023-03-16T02:59:47.971Z,0.78
2023-03-16T03:00:01.164Z,0.71
2023-03-16T03:00:17.839Z,0.73
2023-03-16T03:00:30.156Z,0.65
2023-03-16T03:00:43.275Z,0.63
2023-03-16T03:00:56.827Z,0.63
2023-03-16T03:01:08.733Z,0.66
2023-03-16T03:01:20.795Z,0.68
2023-03-16T03:01:34.795Z,0.64
2023-03-16T03:01:46.746Z,0.59
2023-03-16T03:01:58.784Z,0.55
2023-03-16T03:02:11.400Z,0.52
2023-03-16T03:02:23.502Z,0.52
2023-03-16T03:02:35.411Z,0.47
2023-03-16T03:02:47.422Z,0.49
2023-03-16T03:02:59.490Z,0.48
2023-03-16T03:03:11.800Z,0.51
2023-03-16T03:03:24.034Z,0.59
2023-03-16T03:03:36.099Z,0.63
2023-03-16T03:03:48.420Z,0.58
2023-03-16T03:04:01.441Z,0.52
2023-03-16T03:04:13.386Z,0.50
2023-03-16T03:04:25.470Z,0.55
2023-03-16T03:04:37.424Z,0.59
2023-03-16T03:04:49.533Z,0.55
2023-03-16T03:05:01.971Z,0.49
2023-03-16T03:05:14.089Z,0.47
2023-03-16T03:05:26.000Z,0.43
2023-03-16T03:05:38.094Z,0.35
2023-03-16T03:05:50.122Z,0.42
2023-03-16T03:06:02.221Z,0.33
2023-03-16T03:06:14.164Z,0.38
2023-03-16T03:06:26.268Z,0.35
2023-03-16T03:06:38.199Z,0.29
2023-03-16T03:06:51.437Z,0.34
2023-03-16T03:07:04.932Z,0.35
2023-03-16T03:07:16.907Z,0.43
2023-03-16T03:07:31.858Z,0.38
2023-03-16T03:07:43.801Z,0.44
2023-03-16T03:07:55.816Z,0.50
2023-03-16T03:08:07.871Z,0.55
2023-03-16T03:08:22.323Z,0.55
2023-03-16T03:08:34.292Z,0.60
2023-03-16T03:08:46.203Z,0.61
2023-03-16T03:08:59.566Z,0.58
2023-03-16T03:09:11.794Z,0.64
2023-03-16T03:09:23.751Z,0.67
2023-03-16T03:09:37.278Z,0.65